createdAt,value
2017-12-03T00:00:26.532Z,30.90
2017-12-03T00:02:54.082Z,28.87
2017-12-03T00:05:21.527Z,30.05
2017-12-03T00:07:48.986Z,29.98
2017-12-03T00:10:16.430Z,29.23
2017-12-03T00:12:43.990Z,29.45
2017-12-03T00:15:11.459Z,29.33
2017-12-03T00:17:38.961Z,28.80
2017-12-03T00:20:06.464Z,28.98
2017-12-03T00:22:33.993Z,28.23
2017-12-03T00:25:01.430Z,29.50
2017-12-03T00:27:28.915Z,28.50
2017-12-03T00:29:56.480Z,27.87
2017-12-03T00:32:23.924Z,28.20
2017-12-03T00:34:51.363Z,29.58
2017-12-03T00:37:19.570Z,27.87
2017-12-03T00:39:46.998Z,28.27
2017-12-03T00:42:14.506Z,28.70
2017-12-03T00:44:41.962Z,28.60
2017-12-03T00:47:09.406Z,27.90
2017-12-03T00:49:36.866Z,27.33
2017-12-03T00:52:04.356Z,27.33
2017-12-03T00:54:31.794Z,29.37
2017-12-03T00:56:59.247Z,29.70
2017-12-03T00:59:26.707Z,29.00
2017-12-03T01:01:54.151Z,28.25
2017-12-03T01:04:21.610Z,27.23
2017-12-03T01:06:49.183Z,28.33
2017-12-03T01:09:16.618Z,28.58
2017-12-03T01:11:44.086Z,27.80
2017-12-03T01:14:11.537Z,28.95
2017-12-03T01:16:38.982Z,28.20
2017-12-03T01:19:06.538Z,27.17
2017-12-03T01:21:34.040Z,28.73
2017-12-03T01:24:01.654Z,28.40
2017-12-03T01:26:29.103Z,30.55
2017-12-03T01:28:56.555Z,27.52
2017-12-03T01:31:24.034Z,28.80
2017-12-03T01:33:51.473Z,27.67
2017-12-03T01:36:19.699Z,29.02
2017-12-03T01:38:47.226Z,28.27
2017-12-03T01:41:14.663Z,27.40
2017-12-03T01:43:42.242Z,28.23
2017-12-03T01:46:09.682Z,27.27
2017-12-03T01:48:37.124Z,25.98
2017-12-03T01:51:04.566Z,26.87
2017-12-03T01:53:32.023Z,26.48
2017-12-03T01:55:59.469Z,26.92
2017-12-03T01:58:26.894Z,27.48
2017-12-03T02:00:54.343Z,25.77
2017-12-03T02:03:21.783Z,25.25
2017-12-03T02:05:49.234Z,25.65
2017-12-03T02:08:16.673Z,25.17
2017-12-03T02:10:44.112Z,26.00
2017-12-03T02:13:12.330Z,23.55
2017-12-03T02:15:39.794Z,25.85
2017-12-03T02:18:07.313Z,24.17
2017-12-03T02:20:34.819Z,24.70
2017-12-03T02:23:02.263Z,23.57
2017-12-03T02:25:29.710Z,23.90
2017-12-03T02:27:57.191Z,25.43
2017-12-03T02:30:24.643Z,23.30
2017-12-03T02:32:52.091Z,22.23
2017-12-03T02:35:19.650Z,21.62
2017-12-03T02:37:47.098Z,20.35
2017-12-03T02:40:14.570Z,20.02
2017-12-03T02:42:42.030Z,20.58
2017-12-03T02:45:09.588Z,18.85
2017-12-03T02:47:37.047Z,20.37
2017-12-03T02:50:04.586Z,18.90
2017-12-03T02:52:32.032Z,19.27
2017-12-03T02:54:59.611Z,18.20
2017-12-03T02:57:27.070Z,18.65
2017-12-03T02:59:54.506Z,17.27
2017-12-03T03:02:21.961Z,16.58
2017-12-03T03:04:49.422Z,16.55
2017-12-03T03:07:16.893Z,16.50
2017-12-03T03:09:44.340Z,17.15
2017-12-03T03:12:11.911Z,18.55
2017-12-03T03:14:39.367Z,18.62
2017-12-03T03:17:06.810Z,17.40
2017-12-03T03:19:34.262Z,16.95
2017-12-03T03:22:01.719Z,17.08
2017-12-03T03:24:29.194Z,16.87
2017-12-03T03:26:56.634Z,17.70
2017-12-03T03:29:24.182Z,17.80
2017-12-03T03:31:51.589Z,16.33
2017-12-03T03:34:19.799Z,16.50
2017-12-03T03:36:47.260Z,17.15
2017-12-03T03:39:14.749Z,16.08
2017-12-03T03:41:42.203Z,16.50
2017-12-03T03:44:09.655Z,17.17
2017-12-03T03:46:37.105Z,16.12
2017-12-03T03:49:04.547Z,17.65
2017-12-03T03:51:32.029Z,15.73
2017-12-03T03:53:59.460Z,17.27
2017-12-03T03:56:26.892Z,15.65
2017-12-03T03:58:54.326Z,16.40
2017-12-03T04:01:22.564Z,16.73
2017-12-03T04:03:50.023Z,16.12
2017-12-03T04:06:17.485Z,14.85
2017-12-03T04:08:44.939Z,14.95
2017-12-03T04:11:12.362Z,14.27
2017-12-03T04:13:39.870Z,14.95
2017-12-03T04:16:07.299Z,15.73
2017-12-03T04:18:34.723Z,14.25
2017-12-03T04:21:02.162Z,13.98
2017-12-03T04:23:30.402Z,12.95
2017-12-03T04:25:57.845Z,13.70
2017-12-03T04:28:25.316Z,13.20
2017-12-03T04:30:52.772Z,13.13
2017-12-03T04:33:20.318Z,13.23
2017-12-03T04:35:47.774Z,14.30
2017-12-03T04:38:15.248Z,14.43
2017-12-03T04:40:43.507Z,14.63
2017-12-03T04:43:10.963Z,15.32
2017-12-03T04:45:38.422Z,15.20
2017-12-03T04:48:05.882Z,15.63
2017-12-03T04:50:33.526Z,16.42
2017-12-03T04:53:00.991Z,15.38
2017-12-03T04:55:28.429Z,16.00
2017-12-03T04:57:55.862Z,15.35
2017-12-03T05:00:23.323Z,15.27
2017-12-03T05:02:50.765Z,15.07
2017-12-03T05:05:18.203Z,15.20
2017-12-03T05:07:46.418Z,15.23
2017-12-03T05:10:13.870Z,14.63
2017-12-03T05:12:41.328Z,15.00
2017-12-03T05:15:08.806Z,14.43
2017-12-03T05:17:36.259Z,14.23
2017-12-03T05:20:03.699Z,14.77
2017-12-03T05:22:31.177Z,15.10
2017-12-03T05:24:58.621Z,15.35
2017-12-03T05:27:26.071Z,15.13
2017-12-03T05:29:53.526Z,15.90
2017-12-03T05:32:20.966Z,14.57
2017-12-03T05:34:48.478Z,15.25
2017-12-03T05:37:15.922Z,15.70
2017-12-03T05:39:43.366Z,15.13
2017-12-03T05:42:10.802Z,15.82
2017-12-03T05:44:38.252Z,15.80
2017-12-03T05:47:05.706Z,16.23
2017-12-03T05:49:33.153Z,15.80
2017-12-03T05:52:00.610Z,15.30
2017-12-03T05:54:28.039Z,15.82
2017-12-03T05:56:56.260Z,15.85
2017-12-03T05:59:23.850Z,15.80
2017-12-03T06:01:51.296Z,16.00
2017-12-03T06:04:18.738Z,15.25
2017-12-03T06:06:46.210Z,15.93
2017-12-03T06:09:13.658Z,15.18
2017-12-03T06:11:41.103Z,15.25
2017-12-03T06:14:08.553Z,14.90
2017-12-03T06:16:35.986Z,17.17
2017-12-03T06:19:03.426Z,15.75
2017-12-03T06:21:30.863Z,14.85
2017-12-03T06:23:58.402Z,15.70
2017-12-03T06:26:25.922Z,15.50
2017-12-03T06:28:53.425Z,15.38
2017-12-03T06:31:20.870Z,15.00
2017-12-03T06:33:48.315Z,15.38
2017-12-03T06:36:15.742Z,15.70
2017-12-03T06:38:43.243Z,15.60
2017-12-03T06:41:10.700Z,16.05
2017-12-03T06:43:38.159Z,16.73
2017-12-03T06:46:05.611Z,16.40
2017-12-03T06:48:33.078Z,16.85
2017-12-03T06:51:00.523Z,17.62
2017-12-03T06:53:27.977Z,17.15
2017-12-03T06:55:55.469Z,18.37
2017-12-03T06:58:22.998Z,17.87
2017-12-03T07:00:50.452Z,18.83
2017-12-03T07:03:17.891Z,16.95
2017-12-03T07:05:45.331Z,17.92
2017-12-03T07:08:12.774Z,18.30
2017-12-03T07:10:40.209Z,18.23
2017-12-03T07:13:08.442Z,18.70
2017-12-03T07:15:35.876Z,17.90
2017-12-03T07:18:03.318Z,20.02
2017-12-03T07:20:30.763Z,18.90
2017-12-03T07:22:58.989Z,19.40
2017-12-03T07:25:26.427Z,20.60
2017-12-03T07:27:53.868Z,20.37
2017-12-03T07:30:21.318Z,19.40
2017-12-03T07:32:48.769Z,20.05
2017-12-03T07:35:16.225Z,20.42
2017-12-03T07:37:43.674Z,21.20
2017-12-03T07:40:11.870Z,20.20
2017-12-03T07:42:39.316Z,19.70
2017-12-03T07:45:06.755Z,19.55
2017-12-03T07:47:34.973Z,20.85
2017-12-03T07:50:02.402Z,19.92
2017-12-03T07:52:29.846Z,18.80
2017-12-03T07:54:57.298Z,20.00
2017-12-03T07:57:25.522Z,21.60
2017-12-03T07:59:52.959Z,19.87
2017-12-03T08:02:20.398Z,20.75
2017-12-03T08:04:47.841Z,19.73
2017-12-03T08:07:16.079Z,20.00
2017-12-03T08:09:43.522Z,19.77
2017-12-03T08:12:10.963Z,20.50
2017-12-03T08:14:38.421Z,20.80
2017-12-03T08:17:05.883Z,20.42
2017-12-03T08:19:33.343Z,19.15
2017-12-03T08:22:00.787Z,20.98
2017-12-03T08:24:28.241Z,20.50
2017-12-03T08:26:55.718Z,20.98
2017-12-03T08:29:23.176Z,20.90
2017-12-03T08:31:50.618Z,21.73
2017-12-03T08:34:18.069Z,19.58
2017-12-03T08:36:45.550Z,19.35
2017-12-03T08:39:12.985Z,20.65
2017-12-03T08:41:40.442Z,19.92
2017-12-03T08:44:07.936Z,20.25
2017-12-03T08:46:35.374Z,20.58
2017-12-03T08:49:02.834Z,19.55
2017-12-03T08:51:30.285Z,20.35
2017-12-03T08:53:57.735Z,20.23
2017-12-03T08:56:25.192Z,20.05
2017-12-03T08:58:52.624Z,19.87
2017-12-03T09:01:20.213Z,21.12
2017-12-03T09:03:47.646Z,18.75
2017-12-03T09:06:15.103Z,18.02
2017-12-03T09:08:42.546Z,19.90
2017-12-03T09:11:10.039Z,19.45
2017-12-03T09:13:37.482Z,18.95
2017-12-03T09:16:04.932Z,20.62
2017-12-03T09:18:32.382Z,19.33
2017-12-03T09:20:59.855Z,19.55
2017-12-03T09:23:27.305Z,18.80
2017-12-03T09:25:54.750Z,18.20
2017-12-03T09:28:22.207Z,19.12
2017-12-03T09:30:49.642Z,18.58
2017-12-03T09:33:17.138Z,19.00
2017-12-03T09:35:44.607Z,18.83
2017-12-03T09:38:12.051Z,19.87
2017-12-03T09:40:39.483Z,20.10
2017-12-03T09:43:06.928Z,20.40
2017-12-03T09:45:34.386Z,20.17
2017-12-03T09:48:01.881Z,19.90
2017-12-03T09:50:29.325Z,20.08
2017-12-03T09:52:56.806Z,18.02
2017-12-03T09:55:24.239Z,18.05
2017-12-03T09:57:51.668Z,18.67
2017-12-03T10:00:19.176Z,18.52
2017-12-03T10:02:46.612Z,17.90
2017-12-03T10:05:14.092Z,16.83
2017-12-03T10:07:41.544Z,17.02
2017-12-03T10:10:09.536Z,16.70
2017-12-03T10:12:37.876Z,16.65
2017-12-03T10:15:05.321Z,17.35
2017-12-03T10:17:32.934Z,18.05
2017-12-03T10:20:01.203Z,18.05
2017-12-03T10:22:28.747Z,18.60
2017-12-03T10:24:56.290Z,17.90
2017-12-03T10:27:23.764Z,18.60
2017-12-03T10:29:51.307Z,18.60
2017-12-03T10:32:18.764Z,19.27
2017-12-03T10:34:46.324Z,20.48
2017-12-03T10:37:13.763Z,18.77
2017-12-03T10:39:41.343Z,18.80
2017-12-03T10:42:08.861Z,19.65
2017-12-03T10:44:36.306Z,20.70
2017-12-03T10:47:03.732Z,20.27
2017-12-03T10:49:31.179Z,20.73
2017-12-03T10:51:58.635Z,21.02
2017-12-03T10:54:26.137Z,20.40
2017-12-03T10:56:53.563Z,22.00
2017-12-03T10:59:21.078Z,20.75
2017-12-03T11:01:48.527Z,19.73
2017-12-03T11:04:15.999Z,21.15
2017-12-03T11:06:43.442Z,21.37
2017-12-03T11:09:10.886Z,22.10
2017-12-03T11:11:38.340Z,22.55
2017-12-03T11:14:05.778Z,23.05
2017-12-03T11:16:33.239Z,23.35
2017-12-03T11:19:00.730Z,22.60
2017-12-03T11:21:28.295Z,23.73
2017-12-03T11:23:55.746Z,23.12
2017-12-03T11:26:23.209Z,23.98
2017-12-03T11:28:50.754Z,23.83
2017-12-03T11:31:18.223Z,24.95
2017-12-03T11:33:45.674Z,24.23
2017-12-03T11:36:13.197Z,24.20
2017-12-03T11:38:40.695Z,25.33
2017-12-03T11:41:08.164Z,25.10
2017-12-03T11:43:35.706Z,24.35
2017-12-03T11:46:03.150Z,25.90
2017-12-03T11:48:30.602Z,25.90
2017-12-03T11:50:58.091Z,26.17
2017-12-03T11:53:25.631Z,26.30
2017-12-03T11:55:53.080Z,27.17
2017-12-03T11:58:20.555Z,26.42
2017-12-03T12:00:48.094Z,27.15
2017-12-03T12:03:15.548Z,27.55
2017-12-03T12:05:43.011Z,28.05
2017-12-03T12:08:10.466Z,27.10
2017-12-03T12:10:37.902Z,27.73
2017-12-03T12:13:05.582Z,26.75
2017-12-03T12:15:33.039Z,28.98
2017-12-03T12:18:00.472Z,27.20
2017-12-03T12:20:27.974Z,28.65
2017-12-03T12:22:55.441Z,29.65
2017-12-03T12:25:22.938Z,29.63
2017-12-03T12:27:50.367Z,30.75
2017-12-03T12:30:18.607Z,31.00
2017-12-03T12:32:46.056Z,31.40
2017-12-03T12:35:13.555Z,31.92
2017-12-03T12:37:41.071Z,32.42
2017-12-03T12:40:08.530Z,31.00
2017-12-03T12:42:35.977Z,31.92
2017-12-03T12:45:03.423Z,32.72
2017-12-03T12:47:30.853Z,30.92
2017-12-03T12:49:58.346Z,33.90
2017-12-03T12:52:25.781Z,34.38
2017-12-03T12:54:53.214Z,35.35
2017-12-03T12:57:20.722Z,35.33
2017-12-03T12:59:48.167Z,35.28
2017-12-03T13:02:15.595Z,35.53
2017-12-03T13:04:43.030Z,35.67
2017-12-03T13:07:11.275Z,35.20
2017-12-03T13:09:38.711Z,33.92
2017-12-03T13:12:06.169Z,36.13
2017-12-03T13:14:33.614Z,33.47
2017-12-03T13:17:01.046Z,34.00
2017-12-03T13:19:28.542Z,32.90
2017-12-03T13:21:55.999Z,32.90
2017-12-03T13:24:23.431Z,34.25
2017-12-03T13:26:50.902Z,33.70
2017-12-03T13:29:18.372Z,33.47
2017-12-03T13:31:45.806Z,32.55
2017-12-03T13:34:13.290Z,33.63
2017-12-03T13:36:40.756Z,33.47
2017-12-03T13:39:08.215Z,31.15
2017-12-03T13:41:35.660Z,33.03
2017-12-03T13:44:03.100Z,31.97
2017-12-03T13:46:30.554Z,32.45
2017-12-03T13:48:58.011Z,30.75
2017-12-03T13:51:25.551Z,31.02
2017-12-03T13:53:53.013Z,30.37
2017-12-03T13:56:20.508Z,31.62
2017-12-03T13:58:47.942Z,32.08
2017-12-03T14:01:15.386Z,32.60
2017-12-03T14:03:42.843Z,28.92
2017-12-03T14:06:10.295Z,30.17
2017-12-03T14:08:37.754Z,31.80
2017-12-03T14:11:05.221Z,29.80
2017-12-03T14:13:32.659Z,32.10
2017-12-03T14:16:00.144Z,32.25
2017-12-03T14:18:27.545Z,32.45
2017-12-03T14:20:54.990Z,30.98
2017-12-03T14:23:22.453Z,31.45
2017-12-03T14:25:50.655Z,33.30
2017-12-03T14:28:18.097Z,32.93
2017-12-03T14:30:45.586Z,32.40
2017-12-03T14:33:13.128Z,33.53
2017-12-03T14:35:40.570Z,31.98
2017-12-03T14:38:08.025Z,32.58
2017-12-03T14:40:35.519Z,30.85
2017-12-03T14:43:02.951Z,30.77
2017-12-03T14:45:30.409Z,32.38
2017-12-03T14:47:57.866Z,30.62
2017-12-03T14:50:25.347Z,32.20
2017-12-03T14:52:52.791Z,32.92
2017-12-03T14:55:20.266Z,33.03
2017-12-03T14:57:47.712Z,35.40
2017-12-03T15:00:15.175Z,32.08
2017-12-03T15:02:42.608Z,32.78
2017-12-03T15:05:10.067Z,32.25
2017-12-03T15:07:37.530Z,31.30
2017-12-03T15:10:05.062Z,30.40
2017-12-03T15:12:32.512Z,30.85
2017-12-03T15:14:59.952Z,30.35
2017-12-03T15:17:28.179Z,31.10
2017-12-03T15:19:55.635Z,31.30
2017-12-03T15:22:23.098Z,29.10
2017-12-03T15:24:50.538Z,29.73
2017-12-03T15:27:18.002Z,29.27
2017-12-03T15:29:45.452Z,30.02
2017-12-03T15:32:12.926Z,31.17
2017-12-03T15:34:40.379Z,31.65
2017-12-03T15:37:07.820Z,31.40
2017-12-03T15:39:35.263Z,32.28
2017-12-03T15:42:03.666Z,32.50
2017-12-03T15:44:31.121Z,32.30
2017-12-03T15:46:58.571Z,32.25
2017-12-03T15:49:26.011Z,31.37
2017-12-03T15:51:53.455Z,32.05
2017-12-03T15:54:20.891Z,32.13
2017-12-03T15:56:49.106Z,31.27
2017-12-03T15:59:16.539Z,29.37
2017-12-03T16:01:43.977Z,29.20
2017-12-03T16:04:12.285Z,27.60
2017-12-03T16:06:39.777Z,27.60
2017-12-03T16:09:07.211Z,28.65
2017-12-03T16:11:34.654Z,29.30
2017-12-03T16:14:02.135Z,29.15
2017-12-03T16:16:29.584Z,30.00
2017-12-03T16:18:57.062Z,27.52
2017-12-03T16:21:24.507Z,30.95
2017-12-03T16:23:52.037Z,28.08
2017-12-03T16:26:19.454Z,28.67
2017-12-03T16:28:47.654Z,30.40
2017-12-03T16:31:15.156Z,30.02
2017-12-03T16:33:42.590Z,29.48
2017-12-03T16:36:10.038Z,28.77
2017-12-03T16:38:37.494Z,30.35
2017-12-03T16:41:04.927Z,29.37
2017-12-03T16:43:32.454Z,28.43
2017-12-03T16:45:59.997Z,27.00
2017-12-03T16:48:27.518Z,28.85
2017-12-03T16:50:55.039Z,28.58
2017-12-03T16:53:23.244Z,29.55
2017-12-03T16:55:50.686Z,27.92
2017-12-03T16:58:18.298Z,29.80
2017-12-03T17:00:45.781Z,28.17
2017-12-03T17:03:13.307Z,27.83
2017-12-03T17:05:40.755Z,29.35
2017-12-03T17:08:08.192Z,26.70
2017-12-03T17:10:35.671Z,26.13
2017-12-03T17:13:03.118Z,24.15
2017-12-03T17:15:30.562Z,24.08
2017-12-03T17:17:58.011Z,22.98
2017-12-03T17:20:26.216Z,23.10
2017-12-03T17:22:53.654Z,21.45
2017-12-03T17:25:21.094Z,20.88
2017-12-03T17:27:49.336Z,21.60
2017-12-03T17:30:16.898Z,20.45
2017-12-03T17:32:44.334Z,22.37
2017-12-03T17:35:11.767Z,24.40
2017-12-03T17:37:39.351Z,24.75
2017-12-03T17:40:06.782Z,26.40
2017-12-03T17:42:34.226Z,25.88
2017-12-03T17:45:01.678Z,26.30
2017-12-03T17:47:29.178Z,25.27
2017-12-03T17:49:56.606Z,24.00
2017-12-03T17:52:24.068Z,23.60
2017-12-03T17:54:51.499Z,20.55
2017-12-03T17:57:18.987Z,18.00
2017-12-03T17:59:46.440Z,19.40
2017-12-03T18:02:13.879Z,18.08
2017-12-03T18:04:41.322Z,18.23
2017-12-03T18:07:09.539Z,18.25
2017-12-03T18:09:36.990Z,18.10
2017-12-03T18:12:05.098Z,16.05
2017-12-03T18:14:32.635Z,15.18
2017-12-03T18:17:00.075Z,15.43
2017-12-03T18:19:27.520Z,13.38
2017-12-03T18:21:55.185Z,13.70
2017-12-03T18:24:22.651Z,11.50
2017-12-03T18:26:50.090Z,10.85
2017-12-03T18:29:17.576Z,10.63
2017-12-03T18:31:45.026Z,10.43
2017-12-03T18:34:12.459Z,9.23
2017-12-03T18:36:39.898Z,9.18
2017-12-03T18:39:07.347Z,9.35
2017-12-03T18:41:35.558Z,7.70
2017-12-03T18:44:03.013Z,8.02
2017-12-03T18:46:30.446Z,8.18
2017-12-03T18:48:57.889Z,8.30
2017-12-03T18:51:26.076Z,8.40
2017-12-03T18:53:53.511Z,8.15
2017-12-03T18:56:21.706Z,8.20
2017-12-03T18:58:49.150Z,8.60
2017-12-03T19:01:17.346Z,8.38
2017-12-03T19:03:44.792Z,9.57
2017-12-03T19:06:12.226Z,10.90
2017-12-03T19:08:40.438Z,10.40
2017-12-03T19:11:07.879Z,9.98
2017-12-03T19:13:35.315Z,10.50
2017-12-03T19:16:03.568Z,11.02
2017-12-03T19:18:31.004Z,11.75
2017-12-03T19:20:58.484Z,11.07
2017-12-03T19:23:26.014Z,12.48
2017-12-03T19:25:53.496Z,14.30
2017-12-03T19:28:20.942Z,13.03
2017-12-03T19:30:48.381Z,11.57
2017-12-03T19:33:16.058Z,12.10
2017-12-03T19:35:43.516Z,11.57
2017-12-03T19:38:10.958Z,11.45
2017-12-03T19:40:38.974Z,13.10
2017-12-03T19:43:06.427Z,13.27
2017-12-03T19:45:33.862Z,13.38
2017-12-03T19:48:01.311Z,11.20
2017-12-03T19:50:28.746Z,12.83
2017-12-03T19:52:56.182Z,11.18
2017-12-03T19:55:23.631Z,10.50
2017-12-03T19:57:51.847Z,9.95
2017-12-03T20:00:19.303Z,9.27
2017-12-03T20:02:46.775Z,9.02
2017-12-03T20:05:14.220Z,9.07
2017-12-03T20:07:41.677Z,8.80
2017-12-03T20:10:09.134Z,9.98
2017-12-03T20:12:36.572Z,9.05
2017-12-03T20:15:04.029Z,8.90
2017-12-03T20:17:31.506Z,9.10
2017-12-03T20:19:59.079Z,9.23
2017-12-03T20:22:26.523Z,8.90
2017-12-03T20:24:53.983Z,8.52
2017-12-03T20:27:21.427Z,9.85
2017-12-03T20:29:48.878Z,9.20
2017-12-03T20:32:16.354Z,8.77
2017-12-03T20:37:21.969Z,8.10
2017-12-03T20:39:49.410Z,8.63
2017-12-03T20:42:17.637Z,8.27
2017-12-03T20:44:45.075Z,7.87
2017-12-03T20:47:12.520Z,8.30
2017-12-03T20:49:39.960Z,8.20
2017-12-03T20:52:07.412Z,8.43
2017-12-03T20:54:34.923Z,7.60
2017-12-03T20:57:02.483Z,8.02
2017-12-03T20:59:29.939Z,8.18
2017-12-03T21:01:57.462Z,7.15
2017-12-03T21:04:25.060Z,7.97
2017-12-03T21:06:52.518Z,7.05
2017-12-03T21:09:19.976Z,6.70
2017-12-03T21:11:47.433Z,7.62
2017-12-03T21:14:14.868Z,7.20
2017-12-03T21:16:42.316Z,6.22
2017-12-03T21:19:09.754Z,6.78
2017-12-03T21:21:37.250Z,6.62
2017-12-03T21:24:04.731Z,6.85
2017-12-03T21:26:32.162Z,6.70
2017-12-03T21:28:59.618Z,6.30
2017-12-03T21:31:27.079Z,6.20
2017-12-03T21:33:54.526Z,6.25
2017-12-03T21:36:21.970Z,7.35
2017-12-03T21:38:49.439Z,6.80
2017-12-03T21:41:16.889Z,7.25
2017-12-03T21:43:44.327Z,6.37
2017-12-03T21:46:12.019Z,6.85
2017-12-03T21:48:39.463Z,6.55
2017-12-03T21:51:06.901Z,6.90
2017-12-03T21:53:34.390Z,6.13
2017-12-03T21:56:01.824Z,5.83
2017-12-03T21:58:29.250Z,5.75
2017-12-03T22:00:56.751Z,5.37
2017-12-03T22:03:24.278Z,5.78
2017-12-03T22:05:51.715Z,4.90
2017-12-03T22:08:19.227Z,5.22
2017-12-03T22:10:46.670Z,5.20
2017-12-03T22:13:14.130Z,4.90
2017-12-03T22:15:41.577Z,5.10
2017-12-03T22:18:09.054Z,4.80
2017-12-03T22:20:36.498Z,5.28
2017-12-03T22:23:03.931Z,4.60
2017-12-03T22:25:31.380Z,4.53
2017-12-03T22:27:58.831Z,5.30
2017-12-03T22:30:26.250Z,4.00
2017-12-03T22:32:55.209Z,4.43
2017-12-03T22:35:22.658Z,3.97
2017-12-03T22:37:50.088Z,4.70
2017-12-03T22:40:18.304Z,3.80
2017-12-03T22:42:45.759Z,3.83
2017-12-03T22:45:13.330Z,3.53
2017-12-03T22:47:40.775Z,3.60
2017-12-03T22:50:08.254Z,3.60
2017-12-03T22:52:35.814Z,4.10
2017-12-03T22:55:03.234Z,4.30
2017-12-03T22:57:30.659Z,3.87
2017-12-03T22:59:58.128Z,3.90
2017-12-03T23:02:25.562Z,4.22
2017-12-03T23:04:53.782Z,4.15
2017-12-03T23:07:21.219Z,4.00
2017-12-03T23:09:48.663Z,3.70
2017-12-03T23:12:16.171Z,3.30
2017-12-03T23:14:43.610Z,3.67
2017-12-03T23:17:11.066Z,3.50
2017-12-03T23:19:38.631Z,3.10
2017-12-03T23:22:06.083Z,4.32
2017-12-03T23:24:33.646Z,3.90
2017-12-03T23:27:01.102Z,3.42
2017-12-03T23:29:28.541Z,4.30
2017-12-03T23:31:55.982Z,3.83
2017-12-03T23:34:23.426Z,3.80
2017-12-03T23:36:50.873Z,4.40
2017-12-03T23:39:18.406Z,4.55
2017-12-03T23:41:45.852Z,5.20
2017-12-03T23:44:13.411Z,4.93
2017-12-03T23:46:40.872Z,5.27
2017-12-03T23:49:08.309Z,4.85
2017-12-03T23:51:35.726Z,5.25
2017-12-03T23:54:03.175Z,5.57
2017-12-03T23:56:31.370Z,6.72
2017-12-03T23:58:58.870Z,6.85
